Time;durP1;ratioP1;P1;durP2;ratioP2;P2;SDS_P1;SDS_P2;PMS_P1;PMS_P2;Temp;Humidity;BMP_temperature;BMP_pressure;BME280_temperature;BME280_humidity;BME280_pressure;Samples;Min_cycle;Max_cycle;Signal;HPM_P1;HPM_P2
2021/04/04 00:00:59;;;;;;;18.70;8.13;;;4.10;99.70;;;;;;5048377;28;20451;-70
2021/04/04 00:03:25;;;;;;;15.50;7.97;;;4.20;99.70;;;;;;5048755;28;20455;-71
2021/04/04 00:05:51;;;;;;;19.87;8.77;;;4.20;99.70;;;;;;5047906;28;20448;-70
2021/04/04 00:08:17;;;;;;;15.70;7.93;;;4.20;99.70;;;;;;5048117;28;20443;-71
2021/04/04 00:10:44;;;;;;;14.90;7.77;;;4.30;99.70;;;;;;5048773;28;20558;-72
2021/04/04 00:13:11;;;;;;;17.83;8.40;;;4.20;99.70;;;;;;5048485;28;20472;-73
2021/04/04 00:15:37;;;;;;;17.30;8.50;;;4.10;99.70;;;;;;5048156;28;20447;-72
2021/04/04 00:18:04;;;;;;;22.20;8.30;;;4.10;99.70;;;;;;5047890;28;20956;-70
2021/04/04 00:20:30;;;;;;;18.57;8.93;;;4.10;99.70;;;;;;5048469;28;20468;-70
2021/04/04 00:22:57;;;;;;;16.73;8.00;;;4.10;99.70;;;;;;5048682;28;20474;-73
2021/04/04 00:25:23;;;;;;;21.17;8.20;;;4.10;99.70;;;;;;5048061;28;20530;-70
2021/04/04 00:27:49;;;;;;;21.13;8.33;;;4.00;99.70;;;;;;5048089;28;20439;-72
2021/04/04 00:30:20;;;;;;;20.80;8.60;;;4.00;99.70;;;;;;5048084;28;20561;-71
2021/04/04 00:32:47;;;;;;;18.53;8.83;;;3.70;99.70;;;;;;5048492;28;20811;-72
2021/04/04 00:35:16;;;;;;;15.13;8.20;;;3.70;99.70;;;;;;5047911;28;20448;-71
2021/04/04 00:37:42;;;;;;;17.93;8.20;;;3.70;99.70;;;;;;5048149;28;20454;-71
2021/04/04 00:40:10;;;;;;;20.00;9.03;;;3.80;99.70;;;;;;5048120;28;20467;-73
2021/04/04 00:42:36;;;;;;;16.43;8.63;;;3.90;99.70;;;;;;5048436;28;20452;-72
2021/04/04 00:45:07;;;;;;;19.90;9.40;;;3.90;99.70;;;;;;5045449;28;20816;-70
2021/04/04 00:47:34;;;;;;;20.23;8.70;;;3.70;99.70;;;;;;5048003;28;20444;-70
2021/04/04 00:50:00;;;;;;;30.80;9.87;;;3.80;99.70;;;;;;5047968;28;20487;-71
2021/04/04 00:52:26;;;;;;;21.23;9.30;;;3.80;99.70;;;;;;5048110;28;20439;-73
2021/04/04 00:54:52;;;;;;;19.50;9.60;;;3.70;99.70;;;;;;5047630;28;20830;-69
2021/04/04 00:57:19;;;;;;;17.50;9.20;;;3.70;99.70;;;;;;5047785;28;21020;-70
2021/04/04 00:59:45;;;;;;;21.57;9.90;;;3.80;99.70;;;;;;5047740;28;20471;-71
2021/04/04 01:02:15;;;;;;;18.00;9.43;;;3.80;99.70;;;;;;5047990;28;20436;-70
2021/04/04 01:04:43;;;;;;;20.50;10.40;;;3.50;99.70;;;;;;5048287;28;20443;-74
2021/04/04 01:07:10;;;;;;;21.37;9.40;;;3.50;99.70;;;;;;5047046;28;20872;-71
2021/04/04 01:09:36;;;;;;;19.93;10.07;;;3.40;99.70;;;;;;5047922;28;20479;-70
2021/04/04 01:12:11;;;;;;;19.33;9.73;;;3.60;99.70;;;;;;5050035;28;20448;-69
2021/04/04 01:14:45;;;;;;;21.93;10.20;;;3.40;99.70;;;;;;5051500;28;20450;-70
2021/04/04 01:17:15;;;;;;;19.13;9.47;;;3.40;99.70;;;;;;5050519;28;20428;-71
2021/04/04 01:20:05;;;;;;;21.57;9.13;;;3.60;99.70;;;;;;5051945;28;20459;-73
2021/04/04 01:23:03;;;;;;;16.37;9.23;;;3.60;99.70;;;;;;5051429;28;20448;-71
2021/04/04 01:25:35;;;;;;;17.83;9.10;;;3.50;99.70;;;;;;5050596;28;20502;-72
2021/04/04 01:28:06;;;;;;;19.20;9.53;;;3.60;99.70;;;;;;5051010;28;20453;-74
2021/04/04 01:30:34;;;;;;;19.83;9.30;;;3.60;99.70;;;;;;5166480;22;20492;-69
2021/04/04 01:33:03;;;;;;;23.43;9.67;;;3.30;99.70;;;;;;5132865;27;20451;-69
2021/04/04 01:35:33;;;;;;;19.57;10.30;;;3.20;99.70;;;;;;5131691;27;20455;-70
2021/04/04 01:38:01;;;;;;;18.30;9.50;;;3.20;99.70;;;;;;5132117;27;20459;-69
2021/04/04 01:40:32;;;;;;;24.20;9.83;;;3.10;99.70;;;;;;5132120;27;20509;-70
2021/04/04 01:43:02;;;;;;;18.47;9.03;;;2.90;99.70;;;;;;5132544;27;20440;-69
2021/04/04 01:45:31;;;;;;;21.50;10.23;;;2.90;99.70;;;;;;5129836;27;20486;-69
2021/04/04 01:47:58;;;;;;;21.70;10.30;;;3.00;99.70;;;;;;5131846;27;20440;-69
2021/04/04 01:50:26;;;;;;;25.00;10.07;;;2.90;99.70;;;;;;5131711;27;20479;-69
2021/04/04 01:52:53;;;;;;;18.17;9.27;;;3.00;99.70;;;;;;5132598;27;20451;-68
2021/04/04 01:55:19;;;;;;;19.90;10.00;;;2.70;99.70;;;;;;5132270;27;20469;-67
2021/04/04 01:57:46;;;;;;;15.20;8.70;;;2.90;99.70;;;;;;5131976;27;20452;-68
2021/04/04 02:00:16;;;;;;;16.97;8.90;;;3.00;99.70;;;;;;5132394;27;20460;-68
2021/04/04 02:02:46;;;;;;;19.00;8.33;;;2.90;99.70;;;;;;5132439;27;20452;-68
2021/04/04 02:05:14;;;;;;;18.93;9.57;;;3.00;99.70;;;;;;5131948;27;20455;-68
2021/04/04 02:07:43;;;;;;;15.13;8.87;;;3.00;99.70;;;;;;5131937;27;20444;-68
2021/04/04 02:10:11;;;;;;;18.60;9.17;;;2.90;99.70;;;;;;5131904;27;20506;-68
2021/04/04 02:12:38;;;;;;;16.87;8.40;;;2.90;99.70;;;;;;5132176;27;20436;-68
2021/04/04 02:15:06;;;;;;;18.40;8.83;;;2.70;99.70;;;;;;5131383;27;20440;-65
2021/04/04 02:17:35;;;;;;;17.17;9.07;;;2.70;99.70;;;;;;5132275;27;20469;-69
2021/04/04 02:20:04;;;;;;;21.53;8.93;;;2.70;99.70;;;;;;5131643;27;20460;-68
2021/04/04 02:22:31;;;;;;;17.23;8.70;;;2.70;99.70;;;;;;5131202;27;20455;-68
2021/04/04 02:24:57;;;;;;;19.50;8.50;;;2.60;99.70;;;;;;5131315;27;20444;-68
2021/04/04 02:27:23;;;;;;;16.10;8.13;;;2.60;99.70;;;;;;5130990;27;20447;-67
2021/04/04 02:29:50;;;;;;;18.03;8.80;;;2.70;99.70;;;;;;5140280;27;20497;-68
2021/04/04 02:32:17;;;;;;;21.87;9.63;;;2.80;99.70;;;;;;5151987;27;20451;-69
2021/04/04 02:34:45;;;;;;;16.80;9.20;;;2.70;99.70;;;;;;5151677;27;20470;-68
2021/04/04 02:37:15;;;;;;;18.53;9.53;;;2.80;99.70;;;;;;5151024;27;20474;-69
2021/04/04 02:39:48;;;;;;;17.33;8.80;;;2.80;99.70;;;;;;5152323;27;20455;-68
2021/04/04 02:42:18;;;;;;;15.90;8.60;;;3.00;99.70;;;;;;5151701;27;20507;-68
2021/04/04 02:44:46;;;;;;;22.40;9.57;;;3.00;99.70;;;;;;5151700;27;20431;-68
2021/04/04 02:47:13;;;;;;;18.50;9.03;;;2.90;99.70;;;;;;5150490;27;20439;-69
2021/04/04 02:49:44;;;;;;;24.03;10.00;;;2.80;99.70;;;;;;5151342;27;20991;-68
2021/04/04 02:52:12;;;;;;;23.37;9.47;;;2.80;99.70;;;;;;5151349;27;20944;-69
2021/04/04 02:54:41;;;;;;;21.13;9.40;;;2.60;99.70;;;;;;5151651;27;20447;-68
2021/04/04 02:57:08;;;;;;;19.77;9.73;;;2.80;99.70;;;;;;5150727;27;20503;-68
2021/04/04 02:59:41;;;;;;;20.53;10.60;;;2.70;99.70;;;;;;5151587;27;20451;-68
2021/04/04 03:02:11;;;;;;;19.67;9.27;;;2.60;99.70;;;;;;5151099;27;20517;-69
2021/04/04 03:04:38;;;;;;;21.60;10.00;;;2.50;99.70;;;;;;5151228;27;20451;-69
2021/04/04 03:07:06;;;;;;;19.87;10.30;;;2.50;99.70;;;;;;5150143;27;20571;-68
2021/04/04 03:09:35;;;;;;;20.33;9.80;;;2.50;99.70;;;;;;5150986;27;20454;-69
2021/04/04 03:12:03;;;;;;;18.40;10.20;;;2.40;99.70;;;;;;5150990;27;20468;-68
2021/04/04 03:14:30;;;;;;;20.70;9.83;;;2.50;99.70;;;;;;5151174;27;20439;-68
2021/04/04 03:16:57;;;;;;;22.33;9.87;;;2.60;99.70;;;;;;5150232;27;20836;-69
2021/04/04 03:19:26;;;;;;;21.70;10.33;;;2.50;99.70;;;;;;5150802;27;20463;-68
2021/04/04 03:21:54;;;;;;;20.00;10.00;;;2.50;99.70;;;;;;5151130;27;20976;-68
2021/04/04 03:24:23;;;;;;;22.00;10.77;;;2.40;99.70;;;;;;5150857;27;20474;-69
2021/04/04 03:26:51;;;;;;;18.50;9.87;;;2.50;99.70;;;;;;5150266;27;20443;-68
2021/04/04 03:29:18;;;;;;;19.23;9.60;;;2.40;99.70;;;;;;5150917;27;20471;-68
2021/04/04 03:31:44;;;;;;;18.77;10.10;;;2.20;99.70;;;;;;5150967;27;20551;-68
2021/04/04 03:34:11;;;;;;;20.60;10.63;;;2.20;99.70;;;;;;5149789;27;20939;-68
2021/04/04 03:36:38;;;;;;;24.40;12.70;;;2.30;99.70;;;;;;5150185;27;20450;-68
2021/04/04 03:39:05;;;;;;;23.90;12.80;;;2.30;99.70;;;;;;5150228;27;20480;-68
2021/04/04 03:41:34;;;;;;;26.43;12.20;;;2.20;99.70;;;;;;5150665;27;20436;-68
2021/04/04 03:44:02;;;;;;;23.93;11.70;;;2.30;99.70;;;;;;5150654;27;20438;-68
2021/04/04 03:46:30;;;;;;;22.73;11.20;;;2.30;99.70;;;;;;5148684;27;20932;-68
2021/04/04 03:48:59;;;;;;;21.23;9.87;;;2.30;99.70;;;;;;5150134;27;20732;-68
2021/04/04 03:51:27;;;;;;;20.87;10.30;;;2.40;99.70;;;;;;5150474;27;20482;-68
2021/04/04 03:53:55;;;;;;;23.67;10.30;;;2.20;99.70;;;;;;5150394;27;20492;-68
2021/04/04 03:56:25;;;;;;;18.80;10.10;;;2.20;99.70;;;;;;5149996;27;20628;-68
2021/04/04 03:58:52;;;;;;;21.80;11.00;;;2.20;99.70;;;;;;5150032;27;20465;-68
2021/04/04 04:01:23;;;;;;;20.53;10.43;;;2.20;99.70;;;;;;5150429;27;20458;-68
2021/04/04 04:03:51;;;;;;;23.57;11.87;;;2.40;99.70;;;;;;5150313;27;20836;-68
2021/04/04 04:06:17;;;;;;;26.13;10.60;;;2.20;99.70;;;;;;5150404;27;20443;-68
2021/04/04 04:08:44;;;;;;;22.07;10.37;;;2.20;99.70;;;;;;5149945;27;20443;-67
2021/04/04 04:11:13;;;;;;;20.27;10.30;;;2.20;99.70;;;;;;5150181;27;20478;-68
2021/04/04 04:13:40;;;;;;;18.20;10.10;;;2.10;99.70;;;;;;5150356;27;20439;-68
2021/04/04 04:16:09;;;;;;;19.13;9.50;;;2.10;99.70;;;;;;5149432;27;20443;-68
2021/04/04 04:18:40;;;;;;;16.10;9.20;;;2.20;99.70;;;;;;5149960;27;20443;-68
2021/04/04 04:21:07;;;;;;;17.67;8.70;;;2.20;99.70;;;;;;5150030;27;20458;-68
2021/04/04 04:23:34;;;;;;;18.63;9.13;;;2.10;99.70;;;;;;5150226;27;20447;-68
2021/04/04 04:26:01;;;;;;;20.47;9.70;;;2.10;99.70;;;;;;5149520;27;20439;-67
2021/04/04 04:28:28;;;;;;;14.53;8.70;;;1.90;99.70;;;;;;5149748;27;20446;-68
2021/04/04 04:30:55;;;;;;;16.23;9.00;;;1.90;99.70;;;;;;5149890;27;20490;-68
2021/04/04 04:33:22;;;;;;;17.97;9.37;;;1.80;99.70;;;;;;5149991;27;20442;-69
2021/04/04 04:35:51;;;;;;;19.40;10.13;;;1.90;99.70;;;;;;5149596;27;20470;-68
2021/04/04 04:38:18;;;;;;;20.67;8.97;;;1.90;99.70;;;;;;5149651;27;20447;-68
2021/04/04 04:40:45;;;;;;;15.53;8.37;;;1.60;99.70;;;;;;5150013;27;20533;-67
2021/04/04 04:43:13;;;;;;;18.00;8.57;;;1.70;99.70;;;;;;5149886;27;20466;-68
2021/04/04 04:45:41;;;;;;;17.07;8.97;;;1.70;99.70;;;;;;5149896;27;20439;-68
2021/04/04 04:48:09;;;;;;;18.80;9.00;;;1.70;99.70;;;;;;5153547;27;20458;-68
2021/04/04 04:50:36;;;;;;;21.50;10.27;;;1.70;99.70;;;;;;5153366;27;20775;-68
2021/04/04 04:53:04;;;;;;;19.23;8.80;;;1.80;99.70;;;;;;5153959;27;20447;-68
2021/04/04 04:55:33;;;;;;;19.57;8.53;;;1.70;99.70;;;;;;5153419;27;20435;-68
2021/04/04 04:58:00;;;;;;;18.43;8.90;;;1.70;99.70;;;;;;5153666;27;20499;-68
2021/04/04 05:00:27;;;;;;;21.53;8.43;;;1.80;99.70;;;;;;5153784;27;20531;-68
2021/04/04 05:02:53;;;;;;;23.10;9.30;;;1.70;99.70;;;;;;5153860;27;20506;-69
2021/04/04 05:05:20;;;;;;;17.80;8.47;;;1.60;99.70;;;;;;5153187;27;20439;-68
2021/04/04 05:07:47;;;;;;;18.73;9.10;;;1.50;99.70;;;;;;5153274;27;20451;-68
2021/04/04 05:10:15;;;;;;;16.10;8.70;;;1.80;99.70;;;;;;5153625;27;20482;-68
2021/04/04 05:12:45;;;;;;;16.10;8.50;;;1.80;99.70;;;;;;5153712;27;20438;-68
2021/04/04 05:15:12;;;;;;;16.83;8.63;;;1.70;99.70;;;;;;5152723;27;20572;-68
2021/04/04 05:17:38;;;;;;;17.00;8.37;;;1.70;99.70;;;;;;5153053;27;20987;-68
2021/04/04 05:20:06;;;;;;;18.60;9.60;;;1.90;99.70;;;;;;5153077;27;20459;-69
2021/04/04 05:22:34;;;;;;;18.37;9.30;;;2.00;99.70;;;;;;5153169;27;20435;-69
2021/04/04 05:25:01;;;;;;;21.33;8.70;;;2.00;99.70;;;;;;5153014;27;20861;-66
2021/04/04 05:27:28;;;;;;;18.40;9.43;;;1.90;99.70;;;;;;5152863;27;20497;-68
2021/04/04 05:29:58;;;;;;;18.83;8.60;;;1.80;99.70;;;;;;5152880;27;20470;-68
2021/04/04 05:32:24;;;;;;;19.97;9.00;;;1.80;99.70;;;;;;5153125;27;20488;-69
2021/04/04 05:34:51;;;;;;;18.97;9.50;;;1.70;99.70;;;;;;5153000;27;20499;-68
2021/04/04 05:37:17;;;;;;;19.27;8.67;;;1.70;99.70;;;;;;5152789;27;20443;-68
2021/04/04 05:39:43;;;;;;;15.90;8.60;;;2.00;99.70;;;;;;5152794;27;20463;-68
2021/04/04 05:42:11;;;;;;;17.57;9.00;;;2.10;99.70;;;;;;5152836;27;20447;-68
2021/04/04 05:44:44;;;;;;;26.47;10.00;;;2.00;99.70;;;;;;5152998;27;20439;-68
2021/04/04 05:47:18;;;;;;;34.43;12.10;;;1.90;99.70;;;;;;5151958;27;20436;-68
2021/04/04 05:49:53;;;;;;;27.83;11.90;;;2.00;99.70;;;;;;5152545;27;20459;-68
2021/04/04 05:52:40;;;;;;;22.40;10.40;;;1.90;99.70;;;;;;5152787;27;20457;-69
2021/04/04 05:55:14;;;;;;;24.87;11.17;;;1.90;99.70;;;;;;5152100;27;20491;-68
2021/04/04 05:57:48;;;;;;;24.30;10.57;;;2.10;99.70;;;;;;5151405;27;20439;-69
2021/04/04 06:00:18;;;;;;;23.37;10.17;;;2.30;99.70;;;;;;5152374;27;20454;-68
2021/04/04 06:03:17;;;;;;;25.50;9.77;;;2.30;99.70;;;;;;5152705;27;20431;-68
2021/04/04 06:06:02;;;;;;;19.10;9.17;;;2.40;99.70;;;;;;5151975;27;20454;-67
2021/04/04 06:08:47;;;;;;;18.97;9.33;;;2.40;99.70;;;;;;5152422;27;20435;-68
2021/04/04 06:11:22;;;;;;;19.10;8.50;;;2.40;99.70;;;;;;5152422;27;20482;-67
2021/04/04 06:13:57;;;;;;;25.80;10.27;;;2.50;99.70;;;;;;5152209;27;20504;-68
2021/04/04 06:16:34;;;;;;;21.00;10.13;;;2.70;99.70;;;;;;5152010;27;20808;-68
2021/04/04 06:19:14;;;;;;;21.03;9.77;;;2.90;99.70;;;;;;5152281;27;20458;-69
2021/04/04 06:21:47;;;;;;;19.03;10.20;;;3.00;99.70;;;;;;5152249;27;20888;-68
2021/04/04 06:24:27;;;;;;;19.90;10.10;;;3.30;99.70;;;;;;5152005;27;20454;-68
2021/04/04 06:27:03;;;;;;;23.80;10.10;;;3.30;99.70;;;;;;5151023;27;20486;-68
2021/04/04 06:29:36;;;;;;;19.33;9.57;;;3.60;99.70;;;;;;5151658;27;20605;-69
2021/04/04 06:32:08;;;;;;;19.17;9.60;;;3.80;99.70;;;;;;5151890;27;20490;-69
2021/04/04 06:34:40;;;;;;;19.60;9.80;;;3.80;99.70;;;;;;5152015;27;20813;-68
2021/04/04 06:37:39;;;;;;;25.07;10.27;;;3.80;99.70;;;;;;5150647;27;20500;-69
2021/04/04 06:40:09;;;;;;;15.13;9.07;;;3.80;99.70;;;;;;5151499;27;20459;-68
2021/04/04 06:42:53;;;;;;;19.87;9.57;;;4.30;99.70;;;;;;5151708;27;21007;-68
2021/04/04 06:45:27;;;;;;;20.27;9.70;;;4.30;99.70;;;;;;5149948;27;20955;-67
2021/04/04 06:48:05;;;;;;;22.43;9.60;;;4.50;99.70;;;;;;5151589;27;20443;-69
2021/04/04 06:50:37;;;;;;;17.77;9.30;;;5.10;99.70;;;;;;5151497;27;20522;-68
2021/04/04 06:53:13;;;;;;;18.67;9.07;;;5.40;99.70;;;;;;5151897;27;20427;-67
2021/04/04 06:55:51;;;;;;;18.60;8.43;;;6.30;98.50;;;;;;5151155;27;20795;-69
2021/04/04 06:58:30;;;;;;;16.47;8.87;;;7.70;96.10;;;;;;5151407;27;20419;-69
2021/04/04 07:01:07;;;;;;;17.70;9.43;;;7.90;91.50;;;;;;5151585;27;20546;-69
2021/04/04 07:03:44;;;;;;;19.43;9.73;;;8.30;91.30;;;;;;5151600;27;20446;-69
2021/04/04 07:06:53;;;;;;;17.53;9.23;;;8.30;89.50;;;;;;5150644;27;20445;-69
2021/04/04 07:09:37;;;;;;;19.43;9.47;;;8.40;89.60;;;;;;5151278;27;20780;-69
2021/04/04 07:12:14;;;;;;;14.07;8.63;;;9.20;86.60;;;;;;5150872;27;20478;-69
2021/04/04 07:15:00;;;;;;;14.93;9.17;;;9.50;87.90;;;;;;5151453;27;20438;-69
2021/04/04 07:17:42;;;;;;;14.77;8.77;;;8.80;87.90;;;;;;5151013;27;20781;-68
2021/04/04 07:20:26;;;;;;;15.17;9.43;;;8.80;89.40;;;;;;5150826;27;20505;-68
2021/04/04 07:23:25;;;;;;;17.00;9.47;;;9.70;87.90;;;;;;5150983;27;20458;-68
2021/04/04 07:26:00;;;;;;;15.67;8.77;;;9.00;89.00;;;;;;5150271;27;20502;-69
2021/04/04 07:28:53;;;;;;;13.60;8.83;;;9.00;88.60;;;;;;5150272;27;20454;-68
2021/04/04 07:31:26;;;;;;;15.63;9.10;;;9.50;87.90;;;;;;5148193;27;20567;-68
2021/04/04 07:34:00;;;;;;;13.93;9.00;;;9.40;88.10;;;;;;5150795;27;20467;-69
2021/04/04 07:36:32;;;;;;;18.10;9.70;;;10.00;86.00;;;;;;5150057;27;20439;-68
2021/04/04 07:39:11;;;;;;;15.20;9.00;;;9.60;86.60;;;;;;5150406;27;20439;-68
2021/04/04 07:41:42;;;;;;;15.47;9.33;;;10.10;86.10;;;;;;5150697;27;20803;-68
2021/04/04 07:44:19;;;;;;;17.83;8.90;;;9.80;85.70;;;;;;5150495;27;20447;-69
2021/04/04 07:46:50;;;;;;;14.10;7.23;;;10.40;85.30;;;;;;5148391;27;20439;-69
2021/04/04 07:49:34;;;;;;;14.90;7.87;;;10.70;82.70;;;;;;5150090;27;20470;-68
2021/04/04 07:52:07;;;;;;;16.43;8.47;;;11.50;80.00;;;;;;5144115;27;20479;-68
2021/04/04 07:54:42;;;;;;;14.87;8.30;;;11.50;80.30;;;;;;5129889;27;20444;-68
2021/04/04 07:57:17;;;;;;;16.97;8.37;;;10.70;81.80;;;;;;5128971;27;20440;-67
2021/04/04 07:59:46;;;;;;;11.70;7.73;;;9.80;82.10;;;;;;5129597;27;20468;-66
2021/04/04 08:02:19;;;;;;;13.43;7.80;;;9.20;84.20;;;;;;5138848;27;20439;-67
2021/04/04 08:04:50;;;;;;;14.00;7.83;;;8.40;84.90;;;;;;5150403;27;20938;-66
2021/04/04 08:07:21;;;;;;;14.73;7.40;;;8.50;87.40;;;;;;5135871;27;20504;-67
2021/04/04 08:09:53;;;;;;;15.97;8.20;;;9.30;86.80;;;;;;5146291;27;20819;-67
2021/04/04 08:12:30;;;;;;;17.37;8.50;;;8.80;86.10;;;;;;5138391;27;20475;-68
2021/04/04 08:15:06;;;;;;;14.10;7.97;;;8.80;87.90;;;;;;5148863;27;20423;-66
2021/04/04 08:17:34;;;;;;;18.63;8.77;;;8.30;87.70;;;;;;5147428;27;20470;-67
2021/04/04 08:20:05;;;;;;;20.47;8.30;;;8.50;88.20;;;;;;5149838;27;20482;-67
2021/04/04 08:22:38;;;;;;;14.00;7.63;;;8.90;87.00;;;;;;5134083;27;20451;-67
2021/04/04 08:25:08;;;;;;;13.60;7.93;;;9.00;87.10;;;;;;5133283;27;20443;-67
2021/04/04 08:27:39;;;;;;;14.20;7.17;;;9.10;85.80;;;;;;5154000;27;20454;-66
2021/04/04 08:30:11;;;;;;;16.20;7.17;;;9.60;85.20;;;;;;5153405;27;20471;-68
2021/04/04 08:32:43;;;;;;;13.57;6.97;;;9.90;84.60;;;;;;5154195;27;20431;-68
2021/04/04 08:35:13;;;;;;;13.80;7.60;;;10.30;83.90;;;;;;5153666;27;20629;-67
2021/04/04 08:37:45;;;;;;;19.27;7.87;;;9.70;86.00;;;;;;5153720;27;20613;-68
2021/04/04 08:40:14;;;;;;;13.03;6.53;;;9.80;85.60;;;;;;5154109;27;20515;-68
2021/04/04 08:42:42;;;;;;;16.37;7.27;;;9.90;84.50;;;;;;5153645;27;20439;-67
2021/04/04 08:45:11;;;;;;;15.80;6.50;;;9.40;85.90;;;;;;5152073;27;20439;-68
2021/04/04 08:47:41;;;;;;;14.00;6.17;;;9.30;86.80;;;;;;5153530;27;20446;-68
2021/04/04 08:50:11;;;;;;;13.80;6.87;;;10.20;86.30;;;;;;5153625;27;20546;-68
2021/04/04 08:52:41;;;;;;;15.77;6.90;;;10.50;84.60;;;;;;5153372;27;20455;-68
2021/04/04 08:55:11;;;;;;;13.40;6.67;;;10.50;83.10;;;;;;5147051;27;20447;-68
2021/04/04 08:57:43;;;;;;;15.97;7.57;;;10.30;84.00;;;;;;5150073;27;20450;-64
2021/04/04 09:00:12;;;;;;;14.53;6.97;;;10.30;85.00;;;;;;5148653;27;20460;-68
2021/04/04 09:02:43;;;;;;;17.50;7.10;;;10.70;81.60;;;;;;5134166;27;20435;-68
2021/04/04 09:05:11;;;;;;;15.40;6.83;;;10.70;82.30;;;;;;5147660;27;20439;-68
2021/04/04 09:07:43;;;;;;;17.97;7.73;;;10.90;80.80;;;;;;5139967;27;20443;-67
2021/04/04 09:10:14;;;;;;;14.67;7.20;;;11.10;81.50;;;;;;5150651;27;20471;-68
2021/04/04 09:12:41;;;;;;;13.47;6.57;;;11.00;81.90;;;;;;5152394;27;20443;-68
2021/04/04 09:15:08;;;;;;;11.83;6.20;;;10.70;83.30;;;;;;5148423;27;20447;-68
2021/04/04 09:17:35;;;;;;;10.97;5.87;;;10.80;81.00;;;;;;5143658;27;20482;-68
2021/04/04 09:20:04;;;;;;;14.23;6.50;;;11.30;81.50;;;;;;5144627;27;20468;-68
2021/04/04 09:22:32;;;;;;;12.10;6.53;;;11.30;80.10;;;;;;5142377;27;20450;-68
2021/04/04 09:25:05;;;;;;;16.47;6.57;;;11.30;79.00;;;;;;5141259;27;20435;-68
2021/04/04 09:27:35;;;;;;;15.10;7.83;;;11.10;81.40;;;;;;5141363;27;20431;-69
2021/04/04 09:30:10;;;;;;;14.53;6.93;;;11.30;81.70;;;;;;5141594;27;20472;-68
2021/04/04 09:32:42;;;;;;;17.60;9.57;;;12.10;78.40;;;;;;5135910;27;20458;-69
2021/04/04 09:35:14;;;;;;;11.47;6.07;;;11.80;79.20;;;;;;5142536;27;20539;-68
2021/04/04 09:37:41;;;;;;;10.00;5.50;;;12.50;75.40;;;;;;5137663;27;20485;-69
2021/04/04 09:40:09;;;;;;;8.00;4.93;;;12.60;74.60;;;;;;5140094;27;20472;-69
2021/04/04 09:42:36;;;;;;;8.60;4.63;;;13.20;72.30;;;;;;5151756;27;20823;-69
2021/04/04 09:45:13;;;;;;;10.23;4.77;;;13.50;68.70;;;;;;5130350;27;20448;-69
2021/04/04 09:47:39;;;;;;;9.80;5.07;;;12.90;70.20;;;;;;5146301;27;20448;-69
2021/04/04 09:50:18;;;;;;;8.00;4.70;;;13.50;71.60;;;;;;5143734;27;20828;-69
2021/04/04 09:52:44;;;;;;;7.13;4.40;;;14.20;67.80;;;;;;5147856;27;20511;-70
2021/04/04 09:55:14;;;;;;;9.30;4.27;;;14.60;69.70;;;;;;5140935;27;20440;-69
2021/04/04 09:57:42;;;;;;;7.37;4.70;;;15.90;61.80;;;;;;5139766;27;20937;-69
2021/04/04 10:00:22;;;;;;;8.53;5.10;;;15.50;63.70;;;;;;5150997;27;20468;-66
2021/04/04 10:02:49;;;;;;;8.93;4.93;;;15.00;67.60;;;;;;5146983;27;20811;-69
2021/04/04 10:05:27;;;;;;;8.00;4.73;;;14.30;66.90;;;;;;5130766;27;20448;-69
2021/04/04 10:07:54;;;;;;;9.17;5.10;;;13.90;67.50;;;;;;5136337;27;20461;-69
2021/04/04 10:10:30;;;;;;;9.83;5.30;;;14.00;66.90;;;;;;5149271;27;20519;-69
2021/04/04 10:12:59;;;;;;;8.43;5.30;;;13.50;69.50;;;;;;5146857;27;20451;-67
2021/04/04 10:15:26;;;;;;;11.50;5.67;;;13.70;71.70;;;;;;5144374;27;20519;-68
2021/04/04 10:17:56;;;;;;;11.90;6.30;;;13.50;71.10;;;;;;5135591;27;20451;-68
2021/04/04 10:20:34;;;;;;;11.40;6.50;;;13.20;71.20;;;;;;5141339;27;20467;-67
2021/04/04 10:23:00;;;;;;;9.23;5.80;;;12.70;74.50;;;;;;5129915;27;20508;-69
2021/04/04 10:25:26;;;;;;;10.80;5.60;;;12.70;72.70;;;;;;5128652;27;20492;-69
2021/04/04 10:28:02;;;;;;;12.03;6.87;;;12.40;74.70;;;;;;5129664;27;20448;-68
2021/04/04 10:30:30;;;;;;;15.43;10.17;;;12.40;74.80;;;;;;5130860;27;20536;-68
2021/04/04 10:33:15;;;;;;;27.47;16.30;;;12.30;74.80;;;;;;5131360;27;20841;-68
2021/04/04 10:35:42;;;;;;;12.00;5.57;;;12.00;72.70;;;;;;5130895;27;20432;-68
2021/04/04 10:38:10;;;;;;;9.70;5.27;;;11.90;74.50;;;;;;5130864;27;20921;-68
2021/04/04 10:40:41;;;;;;;10.07;5.63;;;12.10;72.30;;;;;;5131164;27;20491;-68
2021/04/04 10:43:09;;;;;;;8.37;5.00;;;12.20;72.20;;;;;;5130941;27;20436;-68
2021/04/04 10:45:35;;;;;;;12.20;5.20;;;12.00;74.50;;;;;;5129341;27;20436;-67
2021/04/04 10:48:06;;;;;;;9.03;4.70;;;11.70;75.00;;;;;;5130819;27;20440;-68
2021/04/04 10:50:34;;;;;;;7.30;4.63;;;11.60;73.70;;;;;;5130826;27;20570;-69
2021/04/04 10:53:01;;;;;;;8.97;5.30;;;11.70;74.00;;;;;;5130904;27;20452;-68
2021/04/04 10:55:27;;;;;;;9.60;5.13;;;11.40;74.10;;;;;;5130391;27;20444;-68
2021/04/04 10:57:55;;;;;;;9.20;5.13;;;11.10;75.80;;;;;;5130643;27;20444;-68
2021/04/04 11:00:22;;;;;;;9.87;5.30;;;11.20;75.20;;;;;;5130723;27;20832;-68
2021/04/04 11:02:49;;;;;;;12.53;5.13;;;11.20;74.20;;;;;;5130960;27;20447;-67
2021/04/04 11:05:17;;;;;;;8.53;4.77;;;11.60;71.50;;;;;;5130375;27;20468;-68
2021/04/04 11:07:43;;;;;;;7.97;4.90;;;11.80;74.50;;;;;;5130488;27;20523;-68
2021/04/04 11:10:11;;;;;;;8.40;4.70;;;11.80;74.60;;;;;;5130624;27;20452;-69
2021/04/04 11:12:38;;;;;;;11.43;5.00;;;11.90;74.30;;;;;;5130648;27;20476;-68
2021/04/04 11:15:07;;;;;;;9.03;4.97;;;11.60;73.50;;;;;;5129852;27;20827;-68
2021/04/04 11:17:36;;;;;;;8.73;4.90;;;11.70;73.00;;;;;;5130428;27;20448;-68
2021/04/04 11:20:05;;;;;;;7.80;4.50;;;11.90;73.60;;;;;;5130127;27;20482;-67
2021/04/04 11:22:32;;;;;;;11.73;5.67;;;11.90;73.00;;;;;;5130499;27;20440;-69
2021/04/04 11:25:00;;;;;;;6.40;4.20;;;12.10;72.60;;;;;;5129821;27;20440;-68
2021/04/04 11:27:41;;;;;;;10.87;4.57;;;12.00;72.40;;;;;;5130049;27;20519;-68
2021/04/04 11:30:14;;;;;;;9.50;4.80;;;12.20;73.40;;;;;;5129943;27;20529;-69
2021/04/04 11:32:45;;;;;;;9.83;5.97;;;11.90;73.00;;;;;;5130064;27;20503;-69
2021/04/04 11:35:13;;;;;;;10.70;4.60;;;11.70;70.50;;;;;;5129567;27;20440;-68
2021/04/04 11:37:44;;;;;;;9.20;5.00;;;11.70;72.10;;;;;;5129693;27;20440;-68
2021/04/04 11:40:16;;;;;;;10.53;4.90;;;11.80;73.40;;;;;;5129854;27;20461;-68
2021/04/04 11:42:44;;;;;;;9.90;5.60;;;11.60;73.20;;;;;;5130020;27;20436;-68
2021/04/04 11:45:11;;;;;;;8.30;4.60;;;11.50;72.10;;;;;;5127838;27;20444;-68
2021/04/04 11:47:38;;;;;;;10.20;4.80;;;11.40;73.80;;;;;;5129708;27;20436;-68
2021/04/04 11:50:23;;;;;;;8.87;4.83;;;11.60;73.90;;;;;;5129519;27;20464;-68
2021/04/04 11:52:50;;;;;;;8.40;5.10;;;11.70;75.00;;;;;;5129881;27;20478;-69
2021/04/04 11:55:18;;;;;;;11.43;5.43;;;11.60;74.00;;;;;;5128743;27;20452;-68
2021/04/04 11:57:46;;;;;;;9.83;5.30;;;11.30;75.00;;;;;;5129258;27;20440;-68
2021/04/04 12:00:16;;;;;;;8.50;4.63;;;11.60;74.20;;;;;;5129491;28;20456;-68
2021/04/04 12:02:58;;;;;;;8.63;4.87;;;11.80;73.00;;;;;;5129643;28;20440;-68
2021/04/04 12:05:27;;;;;;;8.77;4.77;;;11.80;73.60;;;;;;5129036;28;20467;-68
2021/04/04 12:07:55;;;;;;;7.77;4.50;;;11.90;75.40;;;;;;5129237;28;20444;-69
2021/04/04 12:10:23;;;;;;;7.97;5.23;;;12.00;74.40;;;;;;5129342;28;20467;-69
2021/04/04 12:12:50;;;;;;;14.20;5.03;;;11.90;74.10;;;;;;5129679;28;20436;-68
2021/04/04 12:15:18;;;;;;;12.50;5.20;;;12.00;75.10;;;;;;5129056;28;20444;-68
2021/04/04 12:17:49;;;;;;;10.27;6.00;;;11.50;73.00;;;;;;5129496;28;20579;-68
2021/04/04 12:20:19;;;;;;;8.60;5.00;;;11.60;72.40;;;;;;5129484;28;20466;-68
2021/04/04 12:22:46;;;;;;;8.10;5.13;;;11.60;75.00;;;;;;5129570;28;20441;-68
2021/04/04 12:25:15;;;;;;;8.60;5.33;;;11.70;73.80;;;;;;5129111;28;20803;-68
2021/04/04 12:27:42;;;;;;;10.87;5.53;;;11.80;71.30;;;;;;5128955;28;20436;-68
2021/04/04 12:30:21;;;;;;;9.70;5.10;;;11.70;70.50;;;;;;5129016;28;20480;-68
2021/04/04 12:32:47;;;;;;;7.57;4.63;;;11.90;72.20;;;;;;5129676;28;20478;-68
2021/04/04 12:35:22;;;;;;;8.67;5.10;;;11.80;71.50;;;;;;5128924;28;20440;-69
2021/04/04 12:37:49;;;;;;;8.33;4.57;;;11.80;71.40;;;;;;5129122;28;20447;-68
2021/04/04 12:40:15;;;;;;;9.40;4.93;;;11.80;73.50;;;;;;5129480;28;20588;-67
2021/04/04 12:42:42;;;;;;;13.53;5.30;;;11.80;74.10;;;;;;5129371;28;20447;-68
2021/04/04 12:45:10;;;;;;;9.57;5.47;;;11.90;74.50;;;;;;5127401;28;20477;-68
2021/04/04 12:47:40;;;;;;;8.53;4.73;;;12.00;72.00;;;;;;5129056;28;21005;-68
2021/04/04 12:50:08;;;;;;;8.00;4.37;;;12.10;72.70;;;;;;5128991;28;20517;-68
2021/04/04 12:52:38;;;;;;;9.37;4.90;;;12.20;74.10;;;;;;5129164;28;20588;-68
2021/04/04 12:55:21;;;;;;;7.00;4.50;;;12.10;73.60;;;;;;5128878;28;20447;-68
2021/04/04 12:57:48;;;;;;;8.33;5.20;;;12.20;73.60;;;;;;5128753;28;20448;-68
2021/04/04 13:00:18;;;;;;;14.10;7.60;;;12.10;74.10;;;;;;5128975;28;20535;-68